sensor_id;sensor_type;location;lat;lon;timestamp;temperature;humidity
15262;DHT22;7733;51.554;13.590;2024-03-06T00:00:10;3.90;99.90
15262;DHT22;7733;51.554;13.590;2024-03-06T00:02:36;3.90;99.90
15262;DHT22;7733;51.554;13.590;2024-03-06T00:05:02;3.80;99.90
15262;DHT22;7733;51.554;13.590;2024-03-06T00:07:29;3.90;99.90
15262;DHT22;7733;51.554;13.590;2024-03-06T00:09:55;3.70;99.90
15262;DHT22;7733;51.554;13.590;2024-03-06T00:12:21;3.60;99.90
15262;DHT22;7733;51.554;13.590;2024-03-06T00:14:47;3.60;99.90
15262;DHT22;7733;51.554;13.590;2024-03-06T00:17:13;3.60;99.90
15262;DHT22;7733;51.554;13.590;2024-03-06T00:19:39;3.60;99.90
15262;DHT22;7733;51.554;13.590;2024-03-06T00:22:04;3.70;99.90
15262;DHT22;7733;51.554;13.590;2024-03-06T00:24:31;3.80;99.90
15262;DHT22;7733;51.554;13.590;2024-03-06T00:26:58;3.90;99.90
15262;DHT22;7733;51.554;13.590;2024-03-06T00:29:23;3.80;99.90
15262;DHT22;7733;51.554;13.590;2024-03-06T00:31:49;3.80;99.90
15262;DHT22;7733;51.554;13.590;2024-03-06T00:34:15;3.60;99.90
15262;DHT22;7733;51.554;13.590;2024-03-06T00:36:42;3.60;99.90
15262;DHT22;7733;51.554;13.590;2024-03-06T00:39:09;3.50;99.90
15262;DHT22;7733;51.554;13.590;2024-03-06T00:41:36;3.60;99.90
15262;DHT22;7733;51.554;13.590;2024-03-06T00:44:02;3.60;99.90
15262;DHT22;7733;51.554;13.590;2024-03-06T00:46:28;3.60;99.90
15262;DHT22;7733;51.554;13.590;2024-03-06T00:48:54;3.60;99.90
15262;DHT22;7733;51.554;13.590;2024-03-06T00:51:20;3.60;99.90
15262;DHT22;7733;51.554;13.590;2024-03-06T00:53:45;3.70;99.90
15262;DHT22;7733;51.554;13.590;2024-03-06T00:56:11;3.60;99.90
15262;DHT22;7733;51.554;13.590;2024-03-06T00:58:37;3.40;99.90
15262;DHT22;7733;51.554;13.590;2024-03-06T01:01:03;3.40;99.90
15262;DHT22;7733;51.554;13.590;2024-03-06T01:03:29;3.30;99.90
15262;DHT22;7733;51.554;13.590;2024-03-06T01:05:55;3.40;99.90
15262;DHT22;7733;51.554;13.590;2024-03-06T01:08:24;3.40;99.90
15262;DHT22;7733;51.554;13.590;2024-03-06T01:10:53;3.40;99.90
15262;DHT22;7733;51.554;13.590;2024-03-06T01:13:22;3.50;99.90
15262;DHT22;7733;51.554;13.590;2024-03-06T01:15:48;3.50;99.90
15262;DHT22;7733;51.554;13.590;2024-03-06T01:18:14;3.40;99.90
15262;DHT22;7733;51.554;13.590;2024-03-06T01:20:39;3.40;99.90
15262;DHT22;7733;51.554;13.590;2024-03-06T01:23:06;3.40;99.90
15262;DHT22;7733;51.554;13.590;2024-03-06T01:25:32;3.40;99.90
15262;DHT22;7733;51.554;13.590;2024-03-06T01:27:58;3.40;99.90
15262;DHT22;7733;51.554;13.590;2024-03-06T01:30:23;3.50;99.90
15262;DHT22;7733;51.554;13.590;2024-03-06T01:32:49;3.50;99.90
15262;DHT22;7733;51.554;13.590;2024-03-06T01:35:15;3.40;99.90
15262;DHT22;7733;51.554;13.590;2024-03-06T01:37:40;3.40;99.90
15262;DHT22;7733;51.554;13.590;2024-03-06T01:40:07;3.30;99.90
15262;DHT22;7733;51.554;13.590;2024-03-06T01:42:34;3.30;99.90
15262;DHT22;7733;51.554;13.590;2024-03-06T01:45:00;3.20;99.90
15262;DHT22;7733;51.554;13.590;2024-03-06T01:47:27;3.20;99.90
15262;DHT22;7733;51.554;13.590;2024-03-06T01:49:53;3.20;99.90
15262;DHT22;7733;51.554;13.590;2024-03-06T01:52:19;3.30;99.90
15262;DHT22;7733;51.554;13.590;2024-03-06T01:54:48;3.20;99.90
15262;DHT22;7733;51.554;13.590;2024-03-06T01:57:16;3.10;99.90
15262;DHT22;7733;51.554;13.590;2024-03-06T01:59:43;3.10;99.90
15262;DHT22;7733;51.554;13.590;2024-03-06T02:02:09;3.00;99.90
15262;DHT22;7733;51.554;13.590;2024-03-06T02:04:37;3.10;99.90
15262;DHT22;7733;51.554;13.590;2024-03-06T02:07:08;3.10;99.90
15262;DHT22;7733;51.554;13.590;2024-03-06T02:09:38;3.00;99.90
15262;DHT22;7733;51.554;13.590;2024-03-06T02:12:08;2.80;99.90
15262;DHT22;7733;51.554;13.590;2024-03-06T02:14:37;2.90;99.90
15262;DHT22;7733;51.554;13.590;2024-03-06T02:17:03;3.00;99.90
15262;DHT22;7733;51.554;13.590;2024-03-06T02:19:43;3.10;99.90
15262;DHT22;7733;51.554;13.590;2024-03-06T02:22:10;3.00;99.90
15262;DHT22;7733;51.554;13.590;2024-03-06T02:24:36;3.00;99.90
15262;DHT22;7733;51.554;13.590;2024-03-06T02:27:05;2.90;99.90
15262;DHT22;7733;51.554;13.590;2024-03-06T02:29:34;3.00;99.90
15262;DHT22;7733;51.554;13.590;2024-03-06T02:32:00;3.00;99.90
15262;DHT22;7733;51.554;13.590;2024-03-06T02:34:28;3.00;99.90
15262;DHT22;7733;51.554;13.590;2024-03-06T02:36:55;3.10;99.90
15262;DHT22;7733;51.554;13.590;2024-03-06T02:39:23;3.00;99.90
15262;DHT22;7733;51.554;13.590;2024-03-06T02:41:49;2.80;99.90
15262;DHT22;7733;51.554;13.590;2024-03-06T02:44:15;2.90;99.90
15262;DHT22;7733;51.554;13.590;2024-03-06T02:46:48;2.90;99.90
15262;DHT22;7733;51.554;13.590;2024-03-06T02:49:15;2.90;99.90
15262;DHT22;7733;51.554;13.590;2024-03-06T02:51:41;2.80;99.90
15262;DHT22;7733;51.554;13.590;2024-03-06T02:54:07;2.80;99.90
15262;DHT22;7733;51.554;13.590;2024-03-06T02:56:33;2.70;99.90
15262;DHT22;7733;51.554;13.590;2024-03-06T02:58:59;2.70;99.90
15262;DHT22;7733;51.554;13.590;2024-03-06T03:01:28;2.70;99.90
15262;DHT22;7733;51.554;13.590;2024-03-06T03:03:54;2.60;99.90
15262;DHT22;7733;51.554;13.590;2024-03-06T03:06:20;2.80;99.90
15262;DHT22;7733;51.554;13.590;2024-03-06T03:08:45;2.80;99.90
15262;DHT22;7733;51.554;13.590;2024-03-06T03:11:11;2.80;99.90
15262;DHT22;7733;51.554;13.590;2024-03-06T03:13:36;2.60;99.90
15262;DHT22;7733;51.554;13.590;2024-03-06T03:16:02;2.50;99.90
15262;DHT22;7733;51.554;13.590;2024-03-06T03:18:29;2.50;99.90
15262;DHT22;7733;51.554;13.590;2024-03-06T03:20:55;2.50;99.90
15262;DHT22;7733;51.554;13.590;2024-03-06T03:23:20;2.50;99.90
15262;DHT22;7733;51.554;13.590;2024-03-06T03:25:48;2.40;99.90
15262;DHT22;7733;51.554;13.590;2024-03-06T03:28:15;2.40;99.90
15262;DHT22;7733;51.554;13.590;2024-03-06T03:30:43;2.60;99.90
15262;DHT22;7733;51.554;13.590;2024-03-06T03:33:11;2.50;99.90
15262;DHT22;7733;51.554;13.590;2024-03-06T03:35:37;2.50;99.90
15262;DHT22;7733;51.554;13.590;2024-03-06T03:38:03;2.40;99.90
15262;DHT22;7733;51.554;13.590;2024-03-06T03:40:29;2.50;99.90
15262;DHT22;7733;51.554;13.590;2024-03-06T03:42:55;2.40;99.90
15262;DHT22;7733;51.554;13.590;2024-03-06T03:45:20;2.40;99.90
15262;DHT22;7733;51.554;13.590;2024-03-06T03:47:46;2.30;99.90
15262;DHT22;7733;51.554;13.590;2024-03-06T03:50:12;2.20;99.90
15262;DHT22;7733;51.554;13.590;2024-03-06T03:52:38;2.30;99.90
15262;DHT22;7733;51.554;13.590;2024-03-06T03:55:07;2.20;99.90
15262;DHT22;7733;51.554;13.590;2024-03-06T03:57:34;2.20;99.90
15262;DHT22;7733;51.554;13.590;2024-03-06T04:00:00;2.10;99.90
15262;DHT22;7733;51.554;13.590;2024-03-06T04:02:25;2.00;99.90
15262;DHT22;7733;51.554;13.590;2024-03-06T04:04:51;2.00;99.90
15262;DHT22;7733;51.554;13.590;2024-03-06T04:07:16;1.90;99.90
15262;DHT22;7733;51.554;13.590;2024-03-06T04:09:44;2.00;99.90
15262;DHT22;7733;51.554;13.590;2024-03-06T04:12:10;2.00;99.90
15262;DHT22;7733;51.554;13.590;2024-03-06T04:14:35;2.00;99.90
15262;DHT22;7733;51.554;13.590;2024-03-06T04:17:01;2.00;99.90
15262;DHT22;7733;51.554;13.590;2024-03-06T04:19:29;2.10;99.90
15262;DHT22;7733;51.554;13.590;2024-03-06T04:21:54;2.10;99.90
15262;DHT22;7733;51.554;13.590;2024-03-06T04:24:20;1.90;99.90
15262;DHT22;7733;51.554;13.590;2024-03-06T04:26:46;1.90;99.90
15262;DHT22;7733;51.554;13.590;2024-03-06T04:29:11;1.80;99.90
15262;DHT22;7733;51.554;13.590;2024-03-06T04:31:37;1.80;99.90
15262;DHT22;7733;51.554;13.590;2024-03-06T04:34:03;1.70;99.90
15262;DHT22;7733;51.554;13.590;2024-03-06T04:36:28;1.80;99.90
15262;DHT22;7733;51.554;13.590;2024-03-06T04:38:54;1.80;99.90
15262;DHT22;7733;51.554;13.590;2024-03-06T04:41:20;1.70;99.90
15262;DHT22;7733;51.554;13.590;2024-03-06T04:43:46;1.70;99.90
15262;DHT22;7733;51.554;13.590;2024-03-06T04:46:14;1.60;99.90
15262;DHT22;7733;51.554;13.590;2024-03-06T04:48:40;1.60;99.90
15262;DHT22;7733;51.554;13.590;2024-03-06T04:51:06;1.50;99.90
15262;DHT22;7733;51.554;13.590;2024-03-06T04:53:31;1.60;99.90
15262;DHT22;7733;51.554;13.590;2024-03-06T04:55:57;1.60;99.90
15262;DHT22;7733;51.554;13.590;2024-03-06T04:58:23;1.60;99.90
15262;DHT22;7733;51.554;13.590;2024-03-06T05:00:48;1.60;99.90
15262;DHT22;7733;51.554;13.590;2024-03-06T05:03:14;1.70;99.90
15262;DHT22;7733;51.554;13.590;2024-03-06T05:05:40;1.70;99.90
15262;DHT22;7733;51.554;13.590;2024-03-06T05:08:06;1.50;99.90
15262;DHT22;7733;51.554;13.590;2024-03-06T05:10:32;1.40;99.90
15262;DHT22;7733;51.554;13.590;2024-03-06T05:12:58;1.50;99.90
15262;DHT22;7733;51.554;13.590;2024-03-06T05:15:23;1.50;99.90
15262;DHT22;7733;51.554;13.590;2024-03-06T05:17:49;1.50;99.90
15262;DHT22;7733;51.554;13.590;2024-03-06T05:20:15;1.40;99.90
15262;DHT22;7733;51.554;13.590;2024-03-06T05:22:42;1.40;99.90
15262;DHT22;7733;51.554;13.590;2024-03-06T05:25:07;1.40;99.90
15262;DHT22;7733;51.554;13.590;2024-03-06T05:27:33;1.30;99.90
15262;DHT22;7733;51.554;13.590;2024-03-06T05:29:59;1.30;99.90
15262;DHT22;7733;51.554;13.590;2024-03-06T05:32:25;1.20;99.90
15262;DHT22;7733;51.554;13.590;2024-03-06T05:34:50;1.20;99.90
15262;DHT22;7733;51.554;13.590;2024-03-06T05:37:16;1.20;99.90
15262;DHT22;7733;51.554;13.590;2024-03-06T05:39:42;1.20;99.90
15262;DHT22;7733;51.554;13.590;2024-03-06T05:42:08;1.20;99.90
15262;DHT22;7733;51.554;13.590;2024-03-06T05:44:34;1.20;99.90
15262;DHT22;7733;51.554;13.590;2024-03-06T05:47:01;1.30;99.90
15262;DHT22;7733;51.554;13.590;2024-03-06T05:49:29;1.40;99.90
15262;DHT22;7733;51.554;13.590;2024-03-06T05:51:55;1.30;99.90
15262;DHT22;7733;51.554;13.590;2024-03-06T05:54:21;1.30;99.90
15262;DHT22;7733;51.554;13.590;2024-03-06T05:56:48;1.30;99.90
15262;DHT22;7733;51.554;13.590;2024-03-06T05:59:17;1.40;99.90
15262;DHT22;7733;51.554;13.590;2024-03-06T06:01:44;1.30;99.90
15262;DHT22;7733;51.554;13.590;2024-03-06T06:04:10;1.30;99.90
15262;DHT22;7733;51.554;13.590;2024-03-06T06:06:37;1.30;99.90
15262;DHT22;7733;51.554;13.590;2024-03-06T06:09:03;1.20;99.90
15262;DHT22;7733;51.554;13.590;2024-03-06T06:11:32;1.20;99.90
15262;DHT22;7733;51.554;13.590;2024-03-06T06:13:59;1.20;99.90
15262;DHT22;7733;51.554;13.590;2024-03-06T06:16:25;1.20;99.90
15262;DHT22;7733;51.554;13.590;2024-03-06T06:18:51;1.20;99.90
15262;DHT22;7733;51.554;13.590;2024-03-06T06:21:17;1.30;99.90
15262;DHT22;7733;51.554;13.590;2024-03-06T06:23:44;1.20;99.90
15262;DHT22;7733;51.554;13.590;2024-03-06T06:26:09;1.20;99.90
15262;DHT22;7733;51.554;13.590;2024-03-06T06:28:41;1.20;99.90
15262;DHT22;7733;51.554;13.590;2024-03-06T06:31:07;1.10;99.90
15262;DHT22;7733;51.554;13.590;2024-03-06T06:33:33;1.20;99.90
15262;DHT22;7733;51.554;13.590;2024-03-06T06:35:59;1.40;99.90
15262;DHT22;7733;51.554;13.590;2024-03-06T06:38:24;1.40;99.90
15262;DHT22;7733;51.554;13.590;2024-03-06T06:40:50;1.30;99.90
15262;DHT22;7733;51.554;13.590;2024-03-06T06:43:16;1.30;99.90
15262;DHT22;7733;51.554;13.590;2024-03-06T06:45:42;1.40;99.90
15262;DHT22;7733;51.554;13.590;2024-03-06T06:48:07;1.40;99.90
15262;DHT22;7733;51.554;13.590;2024-03-06T06:50:35;1.50;99.90
15262;DHT22;7733;51.554;13.590;2024-03-06T06:53:01;1.50;99.90
15262;DHT22;7733;51.554;13.590;2024-03-06T06:55:26;1.60;99.90
15262;DHT22;7733;51.554;13.590;2024-03-06T06:57:52;1.60;99.90
15262;DHT22;7733;51.554;13.590;2024-03-06T07:00:19;1.60;99.90
15262;DHT22;7733;51.554;13.590;2024-03-06T07:02:47;1.70;99.90
15262;DHT22;7733;51.554;13.590;2024-03-06T07:05:13;1.70;99.90
15262;DHT22;7733;51.554;13.590;2024-03-06T07:07:39;1.80;99.90
15262;DHT22;7733;51.554;13.590;2024-03-06T07:10:05;1.80;99.90
15262;DHT22;7733;51.554;13.590;2024-03-06T07:12:32;1.90;99.90
15262;DHT22;7733;51.554;13.590;2024-03-06T07:14:58;2.00;99.90
15262;DHT22;7733;51.554;13.590;2024-03-06T07:17:28;2.00;99.90
15262;DHT22;7733;51.554;13.590;2024-03-06T07:19:54;2.00;99.90
15262;DHT22;7733;51.554;13.590;2024-03-06T07:22:20;2.00;99.90
15262;DHT22;7733;51.554;13.590;2024-03-06T07:24:46;2.10;99.90
15262;DHT22;7733;51.554;13.590;2024-03-06T07:27:12;2.20;99.90
15262;DHT22;7733;51.554;13.590;2024-03-06T07:29:38;2.20;99.90
15262;DHT22;7733;51.554;13.590;2024-03-06T07:32:04;2.30;99.90
15262;DHT22;7733;51.554;13.590;2024-03-06T07:34:33;2.40;99.90
15262;DHT22;7733;51.554;13.590;2024-03-06T07:36:59;2.40;99.90
15262;DHT22;7733;51.554;13.590;2024-03-06T07:39:25;2.40;99.90
15262;DHT22;7733;51.554;13.590;2024-03-06T07:41:52;2.50;99.90
15262;DHT22;7733;51.554;13.590;2024-03-06T07:44:18;2.50;99.90
15262;DHT22;7733;51.554;13.590;2024-03-06T07:46:43;2.60;99.90
15262;DHT22;7733;51.554;13.590;2024-03-06T07:49:09;2.70;99.90
15262;DHT22;7733;51.554;13.590;2024-03-06T07:51:35;2.80;99.90
15262;DHT22;7733;51.554;13.590;2024-03-06T07:54:01;2.90;99.90
15262;DHT22;7733;51.554;13.590;2024-03-06T07:56:29;3.00;99.90
15262;DHT22;7733;51.554;13.590;2024-03-06T07:58:56;3.10;99.90
15262;DHT22;7733;51.554;13.590;2024-03-06T08:01:22;3.10;99.90
15262;DHT22;7733;51.554;13.590;2024-03-06T08:03:48;3.10;99.90
15262;DHT22;7733;51.554;13.590;2024-03-06T08:06:14;3.20;99.90
15262;DHT22;7733;51.554;13.590;2024-03-06T08:08:42;3.30;99.90
15262;DHT22;7733;51.554;13.590;2024-03-06T08:11:10;3.40;99.90
15262;DHT22;7733;51.554;13.590;2024-03-06T08:13:36;3.40;99.90
15262;DHT22;7733;51.554;13.590;2024-03-06T08:16:04;3.50;99.90
15262;DHT22;7733;51.554;13.590;2024-03-06T08:18:30;3.50;99.90
15262;DHT22;7733;51.554;13.590;2024-03-06T08:20:57;3.60;99.90
15262;DHT22;7733;51.554;13.590;2024-03-06T08:23:23;3.60;99.90
15262;DHT22;7733;51.554;13.590;2024-03-06T08:25:50;3.70;99.90
15262;DHT22;7733;51.554;13.590;2024-03-06T08:28:16;3.80;99.90
15262;DHT22;7733;51.554;13.590;2024-03-06T08:30:42;4.00;99.90
15262;DHT22;7733;51.554;13.590;2024-03-06T08:33:09;4.00;99.90
15262;DHT22;7733;51.554;13.590;2024-03-06T08:35:38;4.20;99.90
15262;DHT22;7733;51.554;13.590;2024-03-06T08:38:04;4.10;99.90
15262;DHT22;7733;51.554;13.590;2024-03-06T08:40:31;4.20;99.90
15262;DHT22;7733;51.554;13.590;2024-03-06T08:42:57;4.40;99.90
15262;DHT22;7733;51.554;13.590;2024-03-06T08:45:23;4.40;99.90
15262;DHT22;7733;51.554;13.590;2024-03-06T08:47:49;4.60;99.90
15262;DHT22;7733;51.554;13.590;2024-03-06T08:50:16;4.70;99.90
15262;DHT22;7733;51.554;13.590;2024-03-06T08:52:42;4.90;99.90
15262;DHT22;7733;51.554;13.590;2024-03-06T08:55:08;5.00;99.90
15262;DHT22;7733;51.554;13.590;2024-03-06T08:57:37;5.00;99.90
15262;DHT22;7733;51.554;13.590;2024-03-06T09:00:05;5.00;99.90
15262;DHT22;7733;51.554;13.590;2024-03-06T09:02:38;5.10;99.90
15262;DHT22;7733;51.554;13.590;2024-03-06T09:05:08;5.40;99.90
15262;DHT22;7733;51.554;13.590;2024-03-06T09:07:36;5.60;99.90
15262;DHT22;7733;51.554;13.590;2024-03-06T09:10:09;5.70;99.90
15262;DHT22;7733;51.554;13.590;2024-03-06T09:12:36;5.90;99.90
15262;DHT22;7733;51.554;13.590;2024-03-06T09:15:03;6.30;99.90
15262;DHT22;7733;51.554;13.590;2024-03-06T09:17:30;6.30;99.90
15262;DHT22;7733;51.554;13.590;2024-03-06T09:19:56;6.30;99.90
15262;DHT22;7733;51.554;13.590;2024-03-06T09:22:22;6.30;99.90
15262;DHT22;7733;51.554;13.590;2024-03-06T09:24:48;6.50;99.90
15262;DHT22;7733;51.554;13.590;2024-03-06T09:27:15;6.60;99.90
15262;DHT22;7733;51.554;13.590;2024-03-06T09:29:41;6.80;99.90
15262;DHT22;7733;51.554;13.590;2024-03-06T09:32:08;6.90;99.90
15262;DHT22;7733;51.554;13.590;2024-03-06T09:34:33;7.00;99.90
15262;DHT22;7733;51.554;13.590;2024-03-06T09:36:59;7.00;99.90
15262;DHT22;7733;51.554;13.590;2024-03-06T09:39:25;7.00;99.90
15262;DHT22;7733;51.554;13.590;2024-03-06T09:41:51;7.20;99.90
15262;DHT22;7733;51.554;13.590;2024-03-06T09:44:17;7.20;99.90
15262;DHT22;7733;51.554;13.590;2024-03-06T09:46:45;7.50;99.90
15262;DHT22;7733;51.554;13.590;2024-03-06T09:49:13;7.60;99.90
15262;DHT22;7733;51.554;13.590;2024-03-06T09:51:43;7.60;99.90
15262;DHT22;7733;51.554;13.590;2024-03-06T09:54:12;7.60;99.90
15262;DHT22;7733;51.554;13.590;2024-03-06T09:56:42;7.60;99.90
15262;DHT22;7733;51.554;13.590;2024-03-06T09:59:09;7.50;99.90
15262;DHT22;7733;51.554;13.590;2024-03-06T10:01:40;7.70;99.90
15262;DHT22;7733;51.554;13.590;2024-03-06T10:04:27;7.60;99.90
15262;DHT22;7733;51.554;13.590;2024-03-06T10:06:56;7.50;99.90
15262;DHT22;7733;51.554;13.590;2024-03-06T10:09:24;7.40;99.90
15262;DHT22;7733;51.554;13.590;2024-03-06T10:11:51;7.40;99.90
15262;DHT22;7733;51.554;13.590;2024-03-06T10:14:24;7.40;99.90
15262;DHT22;7733;51.554;13.590;2024-03-06T10:16:57;7.50;99.90
15262;DHT22;7733;51.554;13.590;2024-03-06T10:19:25;7.50;99.90
15262;DHT22;7733;51.554;13.590;2024-03-06T10:21:53;7.30;99.90
15262;DHT22;7733;51.554;13.590;2024-03-06T10:24:26;7.30;99.90
15262;DHT22;7733;51.554;13.590;2024-03-06T10:26:55;7.40;99.90
15262;DHT22;7733;51.554;13.590;2024-03-06T10:29:26;7.50;99.90
15262;DHT22;7733;51.554;13.590;2024-03-06T10:31:54;7.90;99.90
15262;DHT22;7733;51.554;13.590;2024-03-06T10:34:23;8.00;99.90
15262;DHT22;7733;51.554;13.590;2024-03-06T10:36:58;8.20;99.90
15262;DHT22;7733;51.554;13.590;2024-03-06T10:39:25;8.40;99.90
15262;DHT22;7733;51.554;13.590;2024-03-06T10:41:55;8.50;99.90
15262;DHT22;7733;51.554;13.590;2024-03-06T10:44:26;8.60;99.90
15262;DHT22;7733;51.554;13.590;2024-03-06T10:47:00;8.70;99.90
15262;DHT22;7733;51.554;13.590;2024-03-06T10:49:29;8.70;99.90
15262;DHT22;7733;51.554;13.590;2024-03-06T10:52:03;8.90;99.90
15262;DHT22;7733;51.554;13.590;2024-03-06T10:54:34;8.80;99.90
15262;DHT22;7733;51.554;13.590;2024-03-06T10:57:02;8.50;99.90
15262;DHT22;7733;51.554;13.590;2024-03-06T10:59:29;8.50;99.90
15262;DHT22;7733;51.554;13.590;2024-03-06T11:01:56;8.60;99.90
15262;DHT22;7733;51.554;13.590;2024-03-06T11:04:30;8.50;99.90
15262;DHT22;7733;51.554;13.590;2024-03-06T11:07:01;8.30;99.90
15262;DHT22;7733;51.554;13.590;2024-03-06T11:09:28;8.60;99.90
15262;DHT22;7733;51.554;13.590;2024-03-06T11:12:01;8.50;99.90
15262;DHT22;7733;51.554;13.590;2024-03-06T11:14:29;8.60;99.90
15262;DHT22;7733;51.554;13.590;2024-03-06T11:17:09;8.50;99.90
15262;DHT22;7733;51.554;13.590;2024-03-06T11:28:11;9.30;99.90
15262;DHT22;7733;51.554;13.590;2024-03-06T11:30:48;9.50;99.90
15262;DHT22;7733;51.554;13.590;2024-03-06T11:33:23;9.60;99.90
15262;DHT22;7733;51.554;13.590;2024-03-06T11:39:07;9.70;99.90
15262;DHT22;7733;51.554;13.590;2024-03-06T11:44:14;9.80;99.90
15262;DHT22;7733;51.554;13.590;2024-03-06T11:46:45;9.70;99.90
15262;DHT22;7733;51.554;13.590;2024-03-06T11:51:44;9.60;99.90
15262;DHT22;7733;51.554;13.590;2024-03-06T11:54:11;9.80;99.90
15262;DHT22;7733;51.554;13.590;2024-03-06T11:56:43;9.60;99.90
15262;DHT22;7733;51.554;13.590;2024-03-06T11:59:10;9.00;99.90
15262;DHT22;7733;51.554;13.590;2024-03-06T12:01:40;8.90;99.90
15262;DHT22;7733;51.554;13.590;2024-03-06T12:04:07;9.30;99.90
15262;DHT22;7733;51.554;13.590;2024-03-06T12:06:33;9.70;99.90
15262;DHT22;7733;51.554;13.590;2024-03-06T12:08:59;9.60;99.90
15262;DHT22;7733;51.554;13.590;2024-03-06T12:11:25;9.60;99.40
15262;DHT22;7733;51.554;13.590;2024-03-06T12:13:53;9.60;98.80
15262;DHT22;7733;51.554;13.590;2024-03-06T12:16:21;9.80;98.80
15262;DHT22;7733;51.554;13.590;2024-03-06T12:18:53;9.70;98.90
15262;DHT22;7733;51.554;13.590;2024-03-06T12:21:20;9.80;98.50
15262;DHT22;7733;51.554;13.590;2024-03-06T12:23:48;9.70;99.20
15262;DHT22;7733;51.554;13.590;2024-03-06T12:26:13;9.90;99.50
15262;DHT22;7733;51.554;13.590;2024-03-06T12:28:39;9.70;99.30
15262;DHT22;7733;51.554;13.590;2024-03-06T12:31:06;9.90;97.30
15262;DHT22;7733;51.554;13.590;2024-03-06T12:33:33;9.90;97.20
15262;DHT22;7733;51.554;13.590;2024-03-06T12:36:06;10.00;97.80
15262;DHT22;7733;51.554;13.590;2024-03-06T12:38:36;10.30;97.30
15262;DHT22;7733;51.554;13.590;2024-03-06T12:41:03;9.80;97.40
15262;DHT22;7733;51.554;13.590;2024-03-06T12:43:29;9.80;98.30
15262;DHT22;7733;51.554;13.590;2024-03-06T12:45:55;9.70;97.10
15262;DHT22;7733;51.554;13.590;2024-03-06T12:48:23;10.00;97.40
15262;DHT22;7733;51.554;13.590;2024-03-06T12:50:49;10.20;97.30
15262;DHT22;7733;51.554;13.590;2024-03-06T12:53:20;10.30;97.40
15262;DHT22;7733;51.554;13.590;2024-03-06T12:55:46;10.10;97.20
15262;DHT22;7733;51.554;13.590;2024-03-06T12:58:13;9.70;96.80
15262;DHT22;7733;51.554;13.590;2024-03-06T13:00:40;9.60;97.60
15262;DHT22;7733;51.554;13.590;2024-03-06T13:03:07;9.80;97.60
15262;DHT22;7733;51.554;13.590;2024-03-06T13:05:33;10.10;98.40
15262;DHT22;7733;51.554;13.590;2024-03-06T13:07:59;10.00;98.90
15262;DHT22;7733;51.554;13.590;2024-03-06T13:10:25;9.90;99.00
15262;DHT22;7733;51.554;13.590;2024-03-06T13:12:51;9.90;99.10
15262;DHT22;7733;51.554;13.590;2024-03-06T13:15:16;9.60;99.70
15262;DHT22;7733;51.554;13.590;2024-03-06T13:17:42;9.60;99.90
15262;DHT22;7733;51.554;13.590;2024-03-06T13:20:08;9.90;99.90
15262;DHT22;7733;51.554;13.590;2024-03-06T13:22:35;9.90;98.80
15262;DHT22;7733;51.554;13.590;2024-03-06T13:25:01;9.90;98.70
15262;DHT22;7733;51.554;13.590;2024-03-06T13:27:26;9.90;99.50
15262;DHT22;7733;51.554;13.590;2024-03-06T13:29:53;9.60;99.50
15262;DHT22;7733;51.554;13.590;2024-03-06T13:32:18;9.50;99.80
15262;DHT22;7733;51.554;13.590;2024-03-06T13:34:44;9.40;99.90
15262;DHT22;7733;51.554;13.590;2024-03-06T13:37:10;9.50;99.90
15262;DHT22;7733;51.554;13.590;2024-03-06T13:39:36;9.60;99.90
15262;DHT22;7733;51.554;13.590;2024-03-06T13:42:02;9.60;99.90
15262;DHT22;7733;51.554;13.590;2024-03-06T13:44:28;9.40;99.10
15262;DHT22;7733;51.554;13.590;2024-03-06T13:46:54;9.40;99.80
15262;DHT22;7733;51.554;13.590;2024-03-06T13:49:39;9.50;99.90
15262;DHT22;7733;51.554;13.590;2024-03-06T13:52:07;9.20;99.90
15262;DHT22;7733;51.554;13.590;2024-03-06T13:54:39;9.20;99.90
15262;DHT22;7733;51.554;13.590;2024-03-06T13:57:07;9.20;99.90
15262;DHT22;7733;51.554;13.590;2024-03-06T13:59:34;9.00;99.00
15262;DHT22;7733;51.554;13.590;2024-03-06T14:02:00;9.20;99.00
15262;DHT22;7733;51.554;13.590;2024-03-06T14:04:28;9.10;98.80
15262;DHT22;7733;51.554;13.590;2024-03-06T14:06:55;9.30;99.20
15262;DHT22;7733;51.554;13.590;2024-03-06T14:09:22;9.40;98.80
15262;DHT22;7733;51.554;13.590;2024-03-06T14:11:50;9.50;98.30
15262;DHT22;7733;51.554;13.590;2024-03-06T14:14:17;9.10;98.30
15262;DHT22;7733;51.554;13.590;2024-03-06T14:16:43;9.10;98.50
15262;DHT22;7733;51.554;13.590;2024-03-06T14:19:09;8.90;99.00
15262;DHT22;7733;51.554;13.590;2024-03-06T14:21:36;8.90;98.80
15262;DHT22;7733;51.554;13.590;2024-03-06T14:24:02;8.80;98.80
15262;DHT22;7733;51.554;13.590;2024-03-06T14:26:34;8.60;99.50
15262;DHT22;7733;51.554;13.590;2024-03-06T14:29:01;8.50;99.80
15262;DHT22;7733;51.554;13.590;2024-03-06T14:31:28;8.50;98.90
15262;DHT22;7733;51.554;13.590;2024-03-06T14:33:54;8.50;98.80
15262;DHT22;7733;51.554;13.590;2024-03-06T14:36:20;8.20;98.80
15262;DHT22;7733;51.554;13.590;2024-03-06T14:38:52;8.20;99.60
15262;DHT22;7733;51.554;13.590;2024-03-06T14:41:19;8.20;99.70
15262;DHT22;7733;51.554;13.590;2024-03-06T14:43:45;8.20;99.80
15262;DHT22;7733;51.554;13.590;2024-03-06T14:46:12;8.00;99.50
15262;DHT22;7733;51.554;13.590;2024-03-06T14:48:38;8.00;99.50
15262;DHT22;7733;51.554;13.590;2024-03-06T14:51:06;8.20;99.40
15262;DHT22;7733;51.554;13.590;2024-03-06T14:53:32;8.10;99.30
15262;DHT22;7733;51.554;13.590;2024-03-06T14:55:58;7.90;99.00
15262;DHT22;7733;51.554;13.590;2024-03-06T14:58:24;8.00;99.40
15262;DHT22;7733;51.554;13.590;2024-03-06T15:00:50;8.00;99.30
15262;DHT22;7733;51.554;13.590;2024-03-06T15:03:17;7.90;99.10
15262;DHT22;7733;51.554;13.590;2024-03-06T15:05:45;7.90;99.10
15262;DHT22;7733;51.554;13.590;2024-03-06T15:08:11;7.90;99.20
15262;DHT22;7733;51.554;13.590;2024-03-06T15:10:37;8.00;99.30
15262;DHT22;7733;51.554;13.590;2024-03-06T15:13:03;7.80;99.10
15262;DHT22;7733;51.554;13.590;2024-03-06T15:15:30;7.70;99.50
15262;DHT22;7733;51.554;13.590;2024-03-06T15:17:57;7.70;99.90
15262;DHT22;7733;51.554;13.590;2024-03-06T15:20:23;7.50;99.90
15262;DHT22;7733;51.554;13.590;2024-03-06T15:22:49;7.40;99.90
15262;DHT22;7733;51.554;13.590;2024-03-06T15:25:16;7.50;99.90
15262;DHT22;7733;51.554;13.590;2024-03-06T15:27:43;7.60;99.90
15262;DHT22;7733;51.554;13.590;2024-03-06T15:30:09;7.60;99.90
15262;DHT22;7733;51.554;13.590;2024-03-06T15:32:36;7.60;99.90
15262;DHT22;7733;51.554;13.590;2024-03-06T15:35:02;7.40;99.90
15262;DHT22;7733;51.554;13.590;2024-03-06T15:37:32;7.40;99.90
15262;DHT22;7733;51.554;13.590;2024-03-06T15:39:58;7.30;99.90
15262;DHT22;7733;51.554;13.590;2024-03-06T15:42:24;7.30;99.90
15262;DHT22;7733;51.554;13.590;2024-03-06T15:44:51;7.30;99.90
15262;DHT22;7733;51.554;13.590;2024-03-06T15:47:18;7.30;99.90
15262;DHT22;7733;51.554;13.590;2024-03-06T15:49:46;7.40;99.90
15262;DHT22;7733;51.554;13.590;2024-03-06T15:52:13;7.40;99.90
15262;DHT22;7733;51.554;13.590;2024-03-06T15:54:40;7.50;99.90
15262;DHT22;7733;51.554;13.590;2024-03-06T15:57:06;7.50;99.90
15262;DHT22;7733;51.554;13.590;2024-03-06T15:59:33;7.40;99.90